Time;durP1;ratioP1;P1;durP2;ratioP2;P2;SDS_P1;SDS_P2;PMS_P1;PMS_P2;Temp;Humidity;BMP_temperature;BMP_pressure;BME280_temperature;BME280_humidity;BME280_pressure;Samples;Min_cycle;Max_cycle;Signal;HPM_P1;HPM_P2
2023/10/14 00:02:24;;;;;;;19.65;11.73;;;10.30;99.90;;;;;;5065250;28;20280;-87
2023/10/14 00:04:53;;;;;;;25.98;13.60;;;10.30;99.90;;;;;;5066424;28;20706;-88
2023/10/14 00:07:24;;;;;;;24.73;13.60;;;10.30;99.90;;;;;;5065025;28;20262;-88
2023/10/14 00:09:57;;;;;;;23.40;13.50;;;10.40;99.90;;;;;;5054834;28;20189;-87
2023/10/14 00:12:28;;;;;;;30.05;18.25;;;10.50;99.90;;;;;;5067476;28;20273;-89
2023/10/14 00:15:03;;;;;;;28.15;16.15;;;10.60;99.90;;;;;;5042726;28;20575;-87
2023/10/14 00:17:36;;;;;;;26.50;14.75;;;10.70;99.90;;;;;;5067056;28;20197;-88
2023/10/14 00:20:05;;;;;;;22.90;13.82;;;10.80;99.90;;;;;;5048751;28;20193;-87
2023/10/14 00:22:32;;;;;;;23.23;12.43;;;10.80;99.90;;;;;;5055432;28;20224;-88
2023/10/14 00:25:01;;;;;;;17.88;10.82;;;10.80;99.90;;;;;;5066638;28;20242;-88
2023/10/14 00:27:28;;;;;;;22.17;14.13;;;10.80;99.90;;;;;;5068012;28;20184;-88
2023/10/14 00:30:09;;;;;;;24.50;15.40;;;11.00;99.90;;;;;;5057319;28;20188;-88
2023/10/14 00:32:38;;;;;;;27.88;16.40;;;11.00;99.90;;;;;;5068850;28;20246;-89
2023/10/14 00:35:09;;;;;;;29.25;18.58;;;11.10;99.90;;;;;;5068787;28;20188;-87
2023/10/14 00:37:37;;;;;;;35.40;20.30;;;11.10;99.90;;;;;;5052116;28;20193;-88
2023/10/14 00:40:26;;;;;;;38.58;21.17;;;11.10;99.90;;;;;;5066537;28;20192;-87
2023/10/14 00:42:55;;;;;;;36.28;18.67;;;11.10;99.90;;;;;;5075799;28;20208;-88
2023/10/14 00:45:23;;;;;;;35.63;20.60;;;11.10;99.90;;;;;;5065874;28;20253;-87
2023/10/14 00:47:51;;;;;;;33.80;22.67;;;11.30;99.90;;;;;;5057353;28;20197;-87
2023/10/14 00:50:37;;;;;;;35.50;22.27;;;11.40;99.90;;;;;;5048070;28;20609;-87
2023/10/14 00:53:05;;;;;;;43.15;25.10;;;11.40;99.90;;;;;;5068215;28;20223;-88
2023/10/14 00:55:56;;;;;;;38.97;22.67;;;11.40;99.90;;;;;;5069471;28;20810;-89
2023/10/14 00:58:28;;;;;;;35.10;22.23;;;11.50;99.90;;;;;;5061113;28;20320;-88
2023/10/14 01:00:58;;;;;;;40.63;24.33;;;11.60;99.90;;;;;;5054967;28;20191;-90
2023/10/14 01:03:31;;;;;;;43.47;26.08;;;11.70;99.90;;;;;;5051421;28;20200;-87
2023/10/14 01:08:53;;;;;;;43.42;26.83;;;11.70;99.90;;;;;;5048162;28;20534;-88
2023/10/14 01:11:24;;;;;;;54.65;31.02;;;11.70;99.90;;;;;;5049797;28;20204;-89
2023/10/14 01:14:00;;;;;;;40.58;26.70;;;11.80;99.90;;;;;;5062084;28;20189;-90
2023/10/14 01:16:36;;;;;;;45.33;28.60;;;11.80;99.90;;;;;;5051021;28;20538;-88
2023/10/14 01:19:04;;;;;;;53.60;31.95;;;11.80;99.90;;;;;;5058025;28;20197;-88
2023/10/14 01:21:38;;;;;;;52.50;29.80;;;12.00;99.90;;;;;;5068255;28;20200;-87
2023/10/14 01:24:15;;;;;;;50.83;32.28;;;12.00;99.90;;;;;;5065248;28;20208;-87
2023/10/14 01:26:52;;;;;;;48.60;30.45;;;12.10;99.90;;;;;;5056384;28;20189;-85
2023/10/14 01:29:30;;;;;;;50.92;32.30;;;12.00;99.90;;;;;;5043771;28;20203;-88
2023/10/14 01:32:23;;;;;;;45.53;30.23;;;12.20;99.90;;;;;;5060815;28;20221;-87
2023/10/14 01:35:00;;;;;;;51.33;30.17;;;12.20;99.90;;;;;;5053525;28;20220;-87
2023/10/14 01:37:35;;;;;;;45.33;30.65;;;12.20;99.90;;;;;;5060456;28;20189;-88
2023/10/14 01:40:17;;;;;;;52.58;32.40;;;12.20;99.90;;;;;;5060259;28;20901;-88
2023/10/14 01:42:46;;;;;;;46.05;28.90;;;12.30;99.90;;;;;;5061975;28;20216;-87
2023/10/14 01:45:20;;;;;;;48.05;32.67;;;12.30;99.90;;;;;;5067291;28;20550;-88
2023/10/14 01:48:11;;;;;;;49.40;29.30;;;12.40;99.90;;;;;;5067667;28;20197;-87
2023/10/14 01:50:41;;;;;;;41.92;26.90;;;12.40;99.90;;;;;;5060137;28;20189;-87
2023/10/14 01:53:10;;;;;;;36.47;24.92;;;12.30;99.90;;;;;;5070925;28;20196;-88
2023/10/14 01:55:41;;;;;;;38.38;24.83;;;12.50;99.90;;;;;;5070390;28;20203;-88
2023/10/14 01:58:57;;;;;;;43.22;23.23;;;12.60;99.90;;;;;;5068757;28;20256;-90
2023/10/14 02:01:05;;;;;;;33.78;20.80;;;12.60;99.90;;;;;;5075014;28;20606;-88
2023/10/14 02:03:35;;;;;;;37.78;22.95;;;12.50;99.90;;;;;;5067872;28;20726;-88
2023/10/14 02:06:10;;;;;;;34.58;21.85;;;12.60;99.90;;;;;;5067334;28;20250;-88
2023/10/14 02:08:41;;;;;;;32.92;20.83;;;12.60;99.90;;;;;;5054552;28;20188;-88
2023/10/14 02:11:11;;;;;;;31.67;20.42;;;12.70;99.90;;;;;;5066181;28;20568;-88
2023/10/14 02:13:38;;;;;;;30.55;19.60;;;12.80;99.90;;;;;;5054545;28;20193;-87
2023/10/14 02:16:09;;;;;;;30.42;21.30;;;12.80;99.90;;;;;;5057879;28;20205;-88
2023/10/14 02:18:37;;;;;;;30.33;20.45;;;12.90;99.90;;;;;;5062618;28;20196;-89
2023/10/14 02:21:08;;;;;;;37.22;23.90;;;12.90;99.90;;;;;;5067103;28;20196;-88
2023/10/14 02:23:46;;;;;;;37.70;25.63;;;13.00;99.90;;;;;;5042877;28;20204;-88
2023/10/14 02:26:28;;;;;;;35.50;22.52;;;13.00;99.90;;;;;;5057315;28;20189;-88
2023/10/14 02:28:57;;;;;;;39.30;25.35;;;13.00;99.90;;;;;;5070428;28;20235;-90
2023/10/14 02:31:29;;;;;;;36.08;23.92;;;12.90;99.90;;;;;;5053131;28;20647;-88
2023/10/14 02:34:08;;;;;;;39.42;24.75;;;12.90;99.90;;;;;;5063096;28;20189;-88
2023/10/14 02:36:41;;;;;;;42.95;25.75;;;13.00;99.90;;;;;;5055211;28;20193;-87
2023/10/14 02:39:14;;;;;;;45.63;27.15;;;13.00;99.90;;;;;;5071687;28;20630;-87
2023/10/14 02:41:44;;;;;;;46.70;29.08;;;13.00;99.90;;;;;;5071792;28;20196;-88
2023/10/14 02:44:20;;;;;;;45.33;28.77;;;13.20;99.90;;;;;;5058345;28;20228;-90
2023/10/14 02:46:54;;;;;;;46.58;29.73;;;13.20;99.90;;;;;;5067149;28;20748;-88
2023/10/14 02:49:25;;;;;;;41.28;28.17;;;13.20;99.90;;;;;;5069482;28;20189;-87
2023/10/14 02:51:57;;;;;;;42.97;26.17;;;13.30;99.90;;;;;;5053046;28;20200;-88
2023/10/14 02:54:34;;;;;;;44.80;27.55;;;13.30;99.90;;;;;;5050497;28;20224;-88
2023/10/14 02:57:45;;;;;;;49.58;28.90;;;13.30;99.90;;;;;;5057575;28;20678;-88
2023/10/14 02:59:57;;;;;;;46.35;30.58;;;13.30;99.90;;;;;;5062949;28;20224;-88
2023/10/14 03:02:27;;;;;;;42.60;27.35;;;13.40;99.90;;;;;;5066496;28;20193;-88
2023/10/14 03:07:30;;;;;;;38.60;24.38;;;13.40;99.90;;;;;;5061381;28;20193;-88
2023/10/14 03:10:02;;;;;;;45.67;27.77;;;13.40;99.90;;;;;;5062182;28;20682;-88
2023/10/14 03:12:31;;;;;;;39.03;26.05;;;13.40;99.90;;;;;;5053845;28;20660;-89
2023/10/14 03:14:58;;;;;;;39.28;24.05;;;13.50;99.90;;;;;;5053023;28;20188;-89
2023/10/14 03:17:40;;;;;;;37.58;23.33;;;13.60;99.90;;;;;;5068277;28;20188;-88
2023/10/14 03:20:34;;;;;;;37.55;22.38;;;13.60;99.90;;;;;;5058342;28;20196;-88
2023/10/14 03:23:18;;;;;;;35.75;23.02;;;13.60;99.90;;;;;;5066353;28;20256;-88
2023/10/14 03:25:49;;;;;;;35.72;21.40;;;13.60;99.90;;;;;;5039218;28;20254;-89
2023/10/14 03:28:24;;;;;;;38.88;22.95;;;13.60;99.90;;;;;;5054348;28;20244;-88
2023/10/14 03:30:55;;;;;;;40.20;23.20;;;13.60;99.90;;;;;;5036189;28;20202;-89
2023/10/14 03:33:27;;;;;;;35.17;20.67;;;13.60;99.90;;;;;;5068760;28;20258;-89
2023/10/14 03:36:03;;;;;;;35.05;20.40;;;13.60;99.90;;;;;;5068496;28;20667;-88
2023/10/14 03:41:10;;;;;;;38.92;23.67;;;13.60;99.90;;;;;;5051094;28;20197;-86
2023/10/14 03:46:23;;;;;;;40.03;25.38;;;13.70;99.90;;;;;;5066122;28;20185;-87
2023/10/14 03:48:54;;;;;;;38.55;24.08;;;13.70;99.90;;;;;;5065773;28;20280;-90
2023/10/14 03:51:26;;;;;;;40.10;24.27;;;13.80;99.90;;;;;;5063639;28;20191;-90
2023/10/14 03:53:55;;;;;;;42.50;28.48;;;13.70;99.90;;;;;;5070500;28;20266;-88
2023/10/14 03:56:27;;;;;;;41.50;24.63;;;13.80;99.90;;;;;;5062950;28;20184;-89
2023/10/14 03:58:57;;;;;;;38.22;23.73;;;13.80;99.90;;;;;;5054910;28;20224;-87
2023/10/14 04:01:43;;;;;;;39.15;24.40;;;13.80;99.90;;;;;;5052286;28;20203;-89
2023/10/14 04:04:18;;;;;;;38.03;24.58;;;13.80;99.90;;;;;;5065041;28;20733;-87
2023/10/14 04:09:43;;;;;;;38.63;23.25;;;13.80;99.90;;;;;;5060896;28;20647;-87
2023/10/14 04:12:21;;;;;;;39.17;22.95;;;13.80;99.90;;;;;;5065505;28;20622;-89
2023/10/14 04:14:54;;;;;;;36.65;24.77;;;13.80;99.90;;;;;;5036702;28;20200;-88
2023/10/14 04:17:27;;;;;;;37.63;25.00;;;13.80;99.90;;;;;;5055917;28;20186;-88
2023/10/14 04:19:57;;;;;;;41.53;25.27;;;13.80;99.90;;;;;;5066961;28;20194;-89
2023/10/14 04:27:46;;;;;;;39.55;24.98;;;13.80;99.90;;;;;;5075946;28;20197;-88
2023/10/14 04:30:39;;;;;;;38.63;26.42;;;13.70;99.90;;;;;;5064952;28;20729;-88
2023/10/14 04:35:32;;;;;;;39.05;23.15;;;13.80;99.90;;;;;;5062342;28;20267;-87
2023/10/14 04:38:13;;;;;;;40.03;26.65;;;13.70;99.90;;;;;;5067795;28;20601;-88
2023/10/14 04:40:53;;;;;;;40.10;24.27;;;13.80;99.90;;;;;;5061464;28;20247;-88
2023/10/14 04:45:55;;;;;;;35.80;21.75;;;13.70;99.90;;;;;;5066451;28;20259;-87
2023/10/14 04:48:27;;;;;;;37.85;22.95;;;13.70;99.90;;;;;;5058202;28;20195;-89
2023/10/14 04:50:58;;;;;;;38.47;23.42;;;13.70;99.90;;;;;;5069810;28;20200;-86
2023/10/14 04:53:31;;;;;;;37.28;21.75;;;13.70;99.90;;;;;;5060307;28;20192;-87
2023/10/14 04:56:04;;;;;;;37.58;23.55;;;13.70;99.90;;;;;;5052484;28;20196;-86
2023/10/14 04:58:34;;;;;;;37.17;23.95;;;13.70;99.90;;;;;;5051304;28;20208;-89
2023/10/14 05:01:03;;;;;;;38.75;21.88;;;13.60;99.90;;;;;;5061426;28;20205;-90
2023/10/14 05:03:34;;;;;;;35.72;21.80;;;13.70;99.90;;;;;;5066435;28;20213;-89
2023/10/14 05:08:44;;;;;;;34.13;21.88;;;13.60;99.90;;;;;;5065067;28;20193;-86
2023/10/14 05:11:19;;;;;;;40.35;22.30;;;13.70;99.90;;;;;;5055003;28;20197;-88
2023/10/14 05:14:34;;;;;;;35.38;20.42;;;13.60;99.90;;;;;;5065635;28;20189;-91
2023/10/14 05:17:14;;;;;;;35.58;21.10;;;13.60;99.90;;;;;;5062399;28;20207;-88
2023/10/14 05:19:47;;;;;;;33.35;22.67;;;13.60;99.90;;;;;;5060003;28;20197;-87
2023/10/14 05:22:19;;;;;;;34.65;21.05;;;13.70;99.90;;;;;;5062329;28;20200;-88
2023/10/14 05:24:48;;;;;;;35.45;20.40;;;13.60;99.90;;;;;;5058569;28;20284;-89
2023/10/14 05:27:18;;;;;;;30.85;19.00;;;13.60;99.90;;;;;;5055143;28;20264;-89
2023/10/14 05:29:50;;;;;;;31.02;18.90;;;13.70;99.90;;;;;;5064980;28;20193;-88
2023/10/14 05:32:23;;;;;;;36.05;19.38;;;13.70;99.90;;;;;;5056520;28;20180;-89
2023/10/14 05:34:53;;;;;;;34.80;19.80;;;13.70;99.90;;;;;;5071539;28;20249;-90
2023/10/14 05:37:22;;;;;;;34.90;17.88;;;13.70;99.90;;;;;;5069997;28;20189;-90
2023/10/14 05:39:54;;;;;;;33.03;19.10;;;13.70;99.90;;;;;;5056922;28;20270;-90
2023/10/14 05:42:24;;;;;;;34.25;20.05;;;13.70;99.90;;;;;;5046054;28;20201;-89
2023/10/14 05:44:57;;;;;;;33.42;19.02;;;13.70;99.90;;;;;;5043288;28;20217;-91
2023/10/14 05:47:28;;;;;;;30.70;17.13;;;13.70;99.90;;;;;;5055269;28;20193;-89
2023/10/14 05:49:56;;;;;;;31.38;17.60;;;13.70;99.90;;;;;;5046829;28;20296;-87
2023/10/14 05:52:24;;;;;;;36.55;18.98;;;13.80;99.90;;;;;;5066715;28;20336;-89
2023/10/14 05:54:53;;;;;;;26.00;17.42;;;13.70;99.90;;;;;;5071910;28;20212;-90
2023/10/14 05:57:22;;;;;;;30.45;17.80;;;13.80;99.90;;;;;;5070526;28;20201;-89
2023/10/14 05:59:50;;;;;;;30.98;17.52;;;13.80;99.90;;;;;;5039994;28;20622;-87
2023/10/14 06:02:19;;;;;;;30.58;17.88;;;13.80;99.90;;;;;;5065733;28;20689;-87
2023/10/14 06:04:50;;;;;;;30.15;16.23;;;13.80;99.90;;;;;;5057460;28;20597;-90
2023/10/14 06:07:18;;;;;;;26.13;15.93;;;13.90;99.90;;;;;;5049841;28;20224;-89
2023/10/14 06:09:46;;;;;;;29.42;17.65;;;13.90;99.90;;;;;;5062702;28;20683;-90
2023/10/14 06:12:16;;;;;;;29.80;17.45;;;13.90;99.90;;;;;;5071948;28;20216;-87
2023/10/14 06:14:47;;;;;;;25.67;15.80;;;14.00;99.90;;;;;;5068968;28;20204;-88
2023/10/14 06:17:15;;;;;;;27.80;15.05;;;14.00;99.90;;;;;;5070555;28;20189;-88
2023/10/14 06:19:43;;;;;;;29.55;16.33;;;14.00;99.90;;;;;;5054256;28;20827;-89
2023/10/14 06:22:14;;;;;;;26.67;14.93;;;13.90;99.90;;;;;;5071757;28;20199;-88
2023/10/14 06:24:42;;;;;;;27.58;15.40;;;14.00;99.90;;;;;;5069426;28;20205;-86
2023/10/14 06:27:20;;;;;;;27.83;15.10;;;14.00;99.90;;;;;;5051782;28;20189;-90
2023/10/14 06:29:50;;;;;;;25.17;13.98;;;14.10;99.90;;;;;;5062374;28;20193;-88
2023/10/14 06:32:18;;;;;;;26.17;15.32;;;14.10;99.90;;;;;;5060005;28;20193;-89
2023/10/14 06:34:57;;;;;;;25.40;15.35;;;14.10;99.90;;;;;;5067281;28;20200;-88
2023/10/14 06:37:26;;;;;;;27.75;15.63;;;14.10;99.90;;;;;;5071774;28;20196;-89
2023/10/14 06:39:56;;;;;;;23.77;13.00;;;14.10;99.90;;;;;;5068388;28;20181;-88
2023/10/14 06:42:26;;;;;;;26.23;15.25;;;14.10;99.90;;;;;;5068874;28;20203;-87
2023/10/14 06:44:55;;;;;;;23.75;13.75;;;14.20;99.90;;;;;;5061117;28;20731;-88
2023/10/14 06:47:24;;;;;;;27.90;13.95;;;14.20;99.90;;;;;;5069353;28;20203;-88
2023/10/14 06:49:54;;;;;;;26.20;13.25;;;14.20;99.90;;;;;;5046968;28;20195;-88
2023/10/14 06:52:21;;;;;;;28.55;14.60;;;14.30;99.90;;;;;;5057421;28;20702;-89
2023/10/14 06:54:51;;;;;;;28.83;14.50;;;14.30;99.90;;;;;;5070772;28;20188;-86
2023/10/14 06:57:18;;;;;;;21.65;12.68;;;14.30;99.90;;;;;;5067182;28;20686;-89
2023/10/14 06:59:46;;;;;;;26.67;13.30;;;14.40;99.90;;;;;;5052947;28;20344;-90
2023/10/14 07:02:13;;;;;;;24.90;12.48;;;14.40;99.90;;;;;;5055615;28;20193;-89
2023/10/14 07:04:41;;;;;;;24.52;12.73;;;14.40;99.90;;;;;;5050930;28;20294;-87
2023/10/14 07:07:09;;;;;;;21.73;12.70;;;14.30;99.90;;;;;;5059341;28;20192;-87
2023/10/14 07:09:44;;;;;;;19.45;11.95;;;14.40;99.90;;;;;;5068980;28;20219;-90
2023/10/14 07:12:21;;;;;;;24.48;12.90;;;14.40;99.90;;;;;;5065402;28;20181;-89
2023/10/14 07:14:49;;;;;;;25.23;12.70;;;14.40;99.90;;;;;;5067650;28;20231;-89
2023/10/14 07:17:22;;;;;;;20.67;11.27;;;14.40;99.90;;;;;;5036297;28;20192;-90
2023/10/14 07:19:50;;;;;;;24.88;11.93;;;14.30;99.90;;;;;;5052170;28;20197;-87
2023/10/14 07:22:20;;;;;;;23.73;12.20;;;14.40;99.90;;;;;;5053273;28;20209;-88
2023/10/14 07:24:50;;;;;;;27.85;13.30;;;14.30;99.90;;;;;;5050643;28;20225;-89
2023/10/14 07:27:20;;;;;;;28.38;13.50;;;14.40;99.90;;;;;;5039078;28;20659;-90
2023/10/14 07:29:48;;;;;;;22.95;12.93;;;14.40;99.90;;;;;;5067942;28;20189;-91
2023/10/14 07:32:19;;;;;;;19.52;12.27;;;14.40;99.90;;;;;;5050356;28;20189;-89
2023/10/14 07:34:50;;;;;;;21.08;12.05;;;14.40;99.90;;;;;;5047087;28;20220;-89
2023/10/14 07:37:18;;;;;;;20.83;11.13;;;14.40;99.90;;;;;;5051955;28;20200;-87
2023/10/14 07:39:52;;;;;;;22.73;12.25;;;14.50;99.90;;;;;;5056687;28;20554;-88
2023/10/14 07:42:21;;;;;;;25.88;13.05;;;14.50;99.90;;;;;;5056834;28;20303;-88
2023/10/14 07:44:49;;;;;;;21.27;12.57;;;14.50;99.90;;;;;;5068206;28;20197;-87
2023/10/14 07:47:17;;;;;;;29.42;14.27;;;14.50;99.90;;;;;;5049920;28;20192;-89
2023/10/14 07:49:44;;;;;;;20.75;12.63;;;14.50;99.90;;;;;;5067991;28;20177;-88
2023/10/14 07:52:14;;;;;;;25.10;14.27;;;14.50;99.90;;;;;;5067727;28;20188;-89
2023/10/14 07:54:42;;;;;;;23.65;13.60;;;14.50;99.90;;;;;;5054353;28;20215;-87
2023/10/14 07:57:13;;;;;;;23.50;12.60;;;14.50;99.90;;;;;;5057195;28;20192;-90
2023/10/14 07:59:41;;;;;;;22.23;12.35;;;14.50;99.90;;;;;;5066561;28;20754;-87
2023/10/14 08:02:10;;;;;;;20.33;11.80;;;14.50;99.90;;;;;;5058416;28;20194;-87
2023/10/14 08:04:37;;;;;;;23.73;12.63;;;14.50;99.90;;;;;;5064300;28;20489;-87
2023/10/14 08:07:07;;;;;;;26.42;13.27;;;14.60;99.90;;;;;;5051383;28;20201;-88
2023/10/14 08:09:39;;;;;;;20.05;12.30;;;14.60;99.90;;;;;;5067354;28;20217;-88
2023/10/14 08:12:07;;;;;;;23.70;14.13;;;14.50;99.90;;;;;;5046782;28;20261;-90
2023/10/14 08:14:34;;;;;;;26.60;12.75;;;14.60;99.90;;;;;;5055754;28;20288;-87
2023/10/14 08:17:02;;;;;;;23.67;12.05;;;14.60;99.90;;;;;;5066281;28;20193;-87
2023/10/14 08:19:30;;;;;;;20.92;12.30;;;14.60;99.90;;;;;;5055410;28;20189;-88
2023/10/14 08:21:57;;;;;;;23.73;12.48;;;14.60;99.90;;;;;;5066900;28;20181;-88
2023/10/14 08:24:26;;;;;;;22.40;11.85;;;14.60;99.90;;;;;;5046476;28;20208;-87
2023/10/14 08:26:53;;;;;;;22.45;11.95;;;14.60;99.90;;;;;;5070528;28;20655;-88
2023/10/14 08:29:21;;;;;;;20.10;11.70;;;14.60;99.90;;;;;;5054877;28;20196;-87
2023/10/14 08:31:51;;;;;;;21.33;11.35;;;14.70;99.90;;;;;;5066300;28;20188;-87
2023/10/14 08:34:23;;;;;;;22.75;11.95;;;14.70;99.90;;;;;;5034752;28;20953;-85
2023/10/14 08:36:52;;;;;;;19.98;12.10;;;14.80;99.90;;;;;;5065368;28;20753;-88
2023/10/14 08:39:23;;;;;;;26.73;11.93;;;14.80;99.90;;;;;;5058270;28;20605;-87
2023/10/14 08:41:55;;;;;;;18.40;11.40;;;14.80;99.90;;;;;;5059585;28;20189;-87
2023/10/14 08:44:28;;;;;;;23.38;12.52;;;14.90;99.90;;;;;;5064805;28;20205;-89
2023/10/14 08:46:56;;;;;;;22.10;11.48;;;14.90;99.90;;;;;;5069308;28;20188;-86
2023/10/14 08:49:27;;;;;;;21.20;11.35;;;15.00;99.90;;;;;;5059077;28;20625;-87
2023/10/14 08:51:56;;;;;;;23.30;12.02;;;15.00;99.90;;;;;;5068534;28;20185;-88
2023/10/14 08:54:24;;;;;;;25.65;11.82;;;15.20;99.90;;;;;;5053059;28;20192;-87
2023/10/14 08:56:53;;;;;;;21.92;10.77;;;15.20;99.90;;;;;;5053347;28;20231;-89
2023/10/14 08:59:22;;;;;;;21.77;12.73;;;15.20;99.90;;;;;;5062622;28;20232;-89
2023/10/14 09:01:56;;;;;;;22.98;10.98;;;15.30;99.90;;;;;;5056953;28;20319;-89
2023/10/14 09:04:28;;;;;;;17.77;10.90;;;15.30;99.90;;;;;;5055366;28;20251;-86
2023/10/14 09:07:04;;;;;;;20.33;10.88;;;15.30;99.90;;;;;;5065352;28;20216;-89
2023/10/14 09:09:32;;;;;;;22.30;12.13;;;15.30;99.90;;;;;;5051747;28;20209;-89
2023/10/14 09:12:11;;;;;;;18.08;11.52;;;15.30;99.90;;;;;;5057253;28;20196;-86
2023/10/14 09:14:41;;;;;;;24.10;11.18;;;15.30;99.90;;;;;;5064493;28;20211;-86
2023/10/14 09:17:09;;;;;;;21.85;11.70;;;15.30;99.90;;;;;;5057294;28;20196;-88
2023/10/14 09:19:48;;;;;;;24.50;11.07;;;15.30;99.90;;;;;;5067944;28;20191;-91
2023/10/14 09:22:35;;;;;;;23.05;11.13;;;15.30;99.90;;;;;;5060367;28;20189;-90
2023/10/14 09:25:05;;;;;;;23.88;11.43;;;15.30;99.90;;;;;;5058557;28;20198;-90
2023/10/14 09:27:33;;;;;;;21.90;10.73;;;15.30;99.90;;;;;;5070639;28;20237;-88
2023/10/14 09:30:03;;;;;;;24.13;10.70;;;15.30;99.90;;;;;;5064221;28;20682;-89
2023/10/14 09:32:32;;;;;;;23.45;10.88;;;15.30;99.90;;;;;;5070268;28;20284;-84
2023/10/14 09:35:00;;;;;;;23.33;11.23;;;15.30;99.90;;;;;;5031608;28;20196;-86
2023/10/14 09:37:28;;;;;;;21.52;10.90;;;15.30;99.90;;;;;;5055688;28;20217;-87
2023/10/14 09:40:05;;;;;;;22.38;10.98;;;15.30;99.90;;;;;;5067746;28;20238;-89
2023/10/14 09:42:34;;;;;;;23.08;12.13;;;15.20;99.90;;;;;;5055042;28;20273;-88
2023/10/14 09:45:10;;;;;;;25.88;12.10;;;15.20;99.90;;;;;;5068591;28;20579;-88
2023/10/14 09:47:45;;;;;;;25.27;13.20;;;15.20;99.90;;;;;;5065032;28;20254;-88
2023/10/14 09:50:15;;;;;;;22.95;12.60;;;15.10;99.90;;;;;;5066759;28;20192;-89
2023/10/14 09:52:44;;;;;;;23.77;12.25;;;15.10;99.90;;;;;;5043497;28;20196;-85
2023/10/14 09:55:15;;;;;;;25.52;13.10;;;15.10;99.90;;;;;;5068780;28;20197;-87
2023/10/14 09:57:47;;;;;;;21.25;13.05;;;15.20;99.90;;;;;;5064782;28;20258;-85
2023/10/14 10:00:16;;;;;;;22.73;12.35;;;15.10;99.90;;;;;;5070020;28;20201;-87
2023/10/14 10:02:48;;;;;;;21.92;11.75;;;15.10;99.90;;;;;;5068188;28;20551;-85
2023/10/14 10:05:26;;;;;;;22.17;12.40;;;15.10;99.90;;;;;;5062340;28;20217;-87
2023/10/14 10:08:07;;;;;;;25.13;12.60;;;15.10;99.90;;;;;;5060479;28;20550;-84
2023/10/14 10:10:36;;;;;;;20.42;13.48;;;15.10;99.90;;;;;;5065229;28;21000;-86
2023/10/14 10:13:05;;;;;;;22.38;11.90;;;15.10;99.90;;;;;;5070747;28;20188;-84
2023/10/14 10:15:35;;;;;;;27.40;15.00;;;15.10;99.90;;;;;;5061697;28;20192;-86
2023/10/14 10:18:05;;;;;;;21.02;12.50;;;15.10;99.90;;;;;;5067268;28;20220;-86
2023/10/14 10:20:40;;;;;;;27.08;13.85;;;15.10;99.90;;;;;;5058426;28;20189;-84
2023/10/14 10:23:10;;;;;;;24.10;12.95;;;15.00;99.90;;;;;;5067809;28;20192;-85
2023/10/14 10:25:37;;;;;;;21.90;12.70;;;15.10;99.90;;;;;;5074348;28;20209;-85
2023/10/14 10:28:25;;;;;;;23.70;13.48;;;15.00;99.90;;;;;;5052801;28;20270;-85
2023/10/14 10:30:57;;;;;;;24.20;12.80;;;15.00;99.90;;;;;;5059664;28;20193;-86
2023/10/14 10:33:49;;;;;;;28.67;12.55;;;15.00;99.90;;;;;;5055502;28;20217;-84
2023/10/14 10:36:25;;;;;;;19.30;13.50;;;15.00;99.90;;;;;;5068847;28;20196;-84
2023/10/14 10:38:54;;;;;;;24.10;12.68;;;15.10;99.90;;;;;;5063891;28;20605;-84
2023/10/14 10:41:26;;;;;;;28.50;14.52;;;15.10;99.90;;;;;;5073762;28;20920;-87
2023/10/14 10:44:01;;;;;;;22.00;13.02;;;15.20;99.90;;;;;;5063135;28;20201;-86
2023/10/14 10:46:40;;;;;;;21.83;11.93;;;15.10;99.90;;;;;;5056833;28;20363;-85
2023/10/14 10:49:10;;;;;;;22.45;13.02;;;15.10;99.90;;;;;;5054662;28;20184;-86
2023/10/14 10:52:13;;;;;;;23.33;12.07;;;15.30;99.90;;;;;;5062881;28;20221;-87
2023/10/14 10:54:43;;;;;;;19.25;12.18;;;15.20;99.90;;;;;;5043509;28;20193;-86
2023/10/14 10:57:12;;;;;;;22.30;12.18;;;15.20;99.90;;;;;;5040384;28;20189;-88
2023/10/14 10:59:40;;;;;;;20.15;12.10;;;15.20;99.90;;;;;;5039353;28;20259;-87
2023/10/14 11:02:13;;;;;;;24.25;11.57;;;15.30;99.90;;;;;;5061605;28;20748;-86
2023/10/14 11:04:42;;;;;;;18.45;10.88;;;15.30;99.90;;;;;;5055236;28;20189;-86
2023/10/14 11:07:14;;;;;;;20.33;11.38;;;15.40;99.90;;;;;;5064531;28;20192;-86
2023/10/14 11:09:42;;;;;;;17.65;10.32;;;15.60;99.90;;;;;;5044631;28;20188;-87
2023/10/14 11:12:11;;;;;;;19.13;10.60;;;15.50;99.90;;;;;;5066668;28;20192;-86
2023/10/14 11:14:39;;;;;;;18.67;10.25;;;15.50;99.90;;;;;;5068059;28;20243;-86
2023/10/14 11:17:07;;;;;;;20.17;9.95;;;15.50;99.90;;;;;;5064360;28;20752;-87
2023/10/14 11:19:35;;;;;;;16.17;10.73;;;15.50;99.90;;;;;;5073813;28;20906;-85
2023/10/14 11:22:04;;;;;;;18.27;10.27;;;15.50;99.90;;;;;;5068321;28;20212;-86
2023/10/14 11:24:32;;;;;;;17.90;9.73;;;15.50;99.90;;;;;;5065476;28;20195;-86
2023/10/14 11:27:01;;;;;;;19.48;9.90;;;15.50;99.90;;;;;;5053853;28;20213;-87
2023/10/14 11:29:33;;;;;;;14.85;9.05;;;15.60;99.90;;;;;;5066630;28;20907;-88
2023/10/14 11:32:02;;;;;;;20.23;10.15;;;15.60;99.90;;;;;;5046312;28;20272;-86
2023/10/14 11:34:35;;;;;;;18.63;9.98;;;15.60;99.90;;;;;;5066476;28;20196;-85
2023/10/14 11:37:06;;;;;;;16.83;9.77;;;15.60;99.90;;;;;;5062796;28;20674;-86
2023/10/14 11:39:36;;;;;;;19.58;9.85;;;15.60;99.90;;;;;;5063493;28;20196;-85
2023/10/14 11:42:04;;;;;;;19.80;9.60;;;15.50;99.90;;;;;;5066590;28;20185;-87
2023/10/14 11:44:31;;;;;;;19.15;9.88;;;15.60;99.90;;;;;;5059483;28;20639;-87
2023/10/14 11:47:06;;;;;;;17.40;8.50;;;15.60;99.90;;;;;;5067322;28;20204;-86
2023/10/14 11:49:36;;;;;;;15.07;8.52;;;15.70;99.90;;;;;;5057675;28;20195;-86
2023/10/14 11:52:06;;;;;;;13.50;7.88;;;15.80;99.90;;;;;;5060876;28;20196;-87
2023/10/14 11:54:37;;;;;;;16.60;8.77;;;15.70;99.90;;;;;;5070373;28;20176;-86
2023/10/14 11:57:05;;;;;;;18.52;8.68;;;15.70;99.90;;;;;;5073849;28;20679;-86
2023/10/14 11:59:33;;;;;;;16.85;8.48;;;15.60;99.90;;;;;;5043016;28;20235;-87
2023/10/14 12:02:00;;;;;;;18.48;8.48;;;15.70;99.90;;;;;;5062797;28;20595;-86
2023/10/14 12:04:28;;;;;;;19.65;8.57;;;15.70;99.90;;;;;;5067758;28;20196;-88
2023/10/14 12:06:56;;;;;;;13.95;7.63;;;15.80;99.90;;;;;;5060954;28;20276;-86
2023/10/14 12:09:24;;;;;;;16.23;8.32;;;15.70;99.90;;;;;;5066282;28;20186;-87
2023/10/14 12:11:52;;;;;;;18.75;8.57;;;15.80;99.90;;;;;;5076662;28;20678;-87
2023/10/14 12:14:20;;;;;;;13.75;7.28;;;15.70;99.90;;;;;;5071292;28;20237;-87
2023/10/14 12:16:48;;;;;;;15.55;8.43;;;15.70;99.90;;;;;;5072069;28;20207;-87
2023/10/14 12:19:19;;;;;;;15.05;8.68;;;15.70;99.90;;;;;;5068551;28;20664;-87
2023/10/14 12:21:48;;;;;;;13.55;8.43;;;15.60;99.90;;;;;;5080966;28;20724;-88
2023/10/14 12:24:15;;;;;;;20.08;10.20;;;15.50;99.90;;;;;;5069478;28;20288;-87
2023/10/14 12:26:46;;;;;;;21.85;9.57;;;15.40;99.90;;;;;;5069265;28;20265;-86
2023/10/14 12:29:13;;;;;;;16.33;9.18;;;15.30;99.90;;;;;;5067831;28;20196;-88
2023/10/14 12:31:45;;;;;;;15.77;8.13;;;15.30;99.90;;;;;;5059146;28;20561;-87
2023/10/14 12:34:15;;;;;;;18.50;10.38;;;15.20;99.90;;;;;;5067231;28;20555;-89
2023/10/14 12:36:45;;;;;;;18.02;9.93;;;15.20;99.90;;;;;;5058921;28;20193;-87
2023/10/14 12:39:26;;;;;;;18.75;9.13;;;15.20;99.90;;;;;;5062914;28;20188;-87
2023/10/14 12:42:02;;;;;;;18.65;9.68;;;15.20;99.90;;;;;;5058593;28;20257;-85
2023/10/14 12:44:35;;;;;;;16.52;10.02;;;15.10;99.90;;;;;;5057052;28;20197;-86
2023/10/14 12:47:14;;;;;;;18.35;10.25;;;15.10;99.90;;;;;;5078014;28;20293;-85
2023/10/14 12:49:42;;;;;;;23.05;11.43;;;15.10;99.90;;;;;;5069176;28;20267;-85
2023/10/14 12:52:13;;;;;;;16.45;10.15;;;15.00;99.90;;;;;;5063340;28;20210;-86
2023/10/14 12:54:41;;;;;;;18.55;9.27;;;15.00;99.90;;;;;;5053442;28;20334;-86
2023/10/14 12:57:09;;;;;;;22.63;9.20;;;14.90;99.90;;;;;;5059857;28;20617;-85
2023/10/14 12:59:40;;;;;;;16.63;7.70;;;14.90;99.90;;;;;;5053866;28;20255;-87
2023/10/14 13:02:09;;;;;;;10.90;5.45;;;14.80;99.90;;;;;;5080118;28;20562;-86
2023/10/14 13:04:41;;;;;;;6.55;3.83;;;14.60;99.90;;;;;;5066065;28;20196;-86
2023/10/14 13:07:09;;;;;;;5.45;2.78;;;14.50;99.90;;;;;;5055639;28;20208;-85
2023/10/14 13:09:38;;;;;;;5.00;2.28;;;14.30;99.90;;;;;;5063219;28;20189;-85
2023/10/14 13:12:15;;;;;;;4.90;1.88;;;14.00;99.90;;;;;;5067726;28;20196;-85
2023/10/14 13:14:45;;;;;;;5.63;2.10;;;13.90;99.90;;;;;;5059428;28;20185;-85
2023/10/14 13:17:12;;;;;;;5.45;2.03;;;13.80;99.90;;;;;;5058095;28;20184;-86
2023/10/14 13:19:41;;;;;;;2.80;1.83;;;13.90;99.90;;;;;;5066330;28;20201;-86